createdAt,value
2018-04-02T00:00:25.472Z,34.20
2018-04-02T00:01:25.440Z,28.70
2018-04-02T00:02:25.408Z,34.60
2018-04-02T00:03:25.376Z,34.40
2018-04-02T00:04:25.342Z,33.70
2018-04-02T00:05:25.310Z,31.60
2018-04-02T00:06:25.278Z,36.50
2018-04-02T00:07:25.248Z,28.40
2018-04-02T00:08:25.216Z,37.60
2018-04-02T00:09:25.181Z,28.40
2018-04-02T00:10:25.148Z,33.10
2018-04-02T00:11:25.116Z,31.80
2018-04-02T00:12:25.089Z,33.50
2018-04-02T00:13:25.051Z,29.90
2018-04-02T00:14:25.019Z,32.10
2018-04-02T00:15:24.993Z,27.40
2018-04-02T00:16:24.978Z,27.80
2018-04-02T00:17:24.922Z,30.40
2018-04-02T00:18:24.889Z,31.00
2018-04-02T00:19:24.860Z,30.60
2018-04-02T00:20:24.827Z,28.20
2018-04-02T00:21:24.791Z,28.60
2018-04-02T00:22:24.761Z,28.40
2018-04-02T00:23:24.730Z,28.50
2018-04-02T00:24:24.696Z,28.60
2018-04-02T00:25:24.662Z,25.10
2018-04-02T00:26:24.630Z,26.10
2018-04-02T00:27:24.598Z,26.30
2018-04-02T00:28:24.564Z,25.20
2018-04-02T00:29:24.535Z,29.50
2018-04-02T00:30:24.499Z,29.70
2018-04-02T00:31:24.470Z,27.20
2018-04-02T00:32:24.440Z,26.70
2018-04-02T00:33:24.413Z,26.10
2018-04-02T00:34:24.371Z,24.20
2018-04-02T00:35:24.338Z,27.30
2018-04-02T00:36:24.313Z,27.10
2018-04-02T00:37:24.278Z,24.30
2018-04-02T00:38:24.251Z,22.70
2018-04-02T00:39:24.358Z,25.10
2018-04-02T00:40:24.176Z,22.40
2018-04-02T00:41:24.142Z,22.50
2018-04-02T00:42:24.110Z,21.60
2018-04-02T00:43:24.078Z,25.70
2018-04-02T00:44:24.045Z,22.60
2018-04-02T00:45:24.018Z,23.70
2018-04-02T00:46:23.982Z,24.50
2018-04-02T00:47:23.948Z,25.00
2018-04-02T00:48:23.919Z,22.80
2018-04-02T00:49:23.882Z,24.10
2018-04-02T00:50:23.860Z,26.90
2018-04-02T00:51:24.568Z,28.20
2018-04-02T00:52:23.784Z,21.90
2018-04-02T00:53:23.751Z,25.70
2018-04-02T00:54:23.719Z,28.20
2018-04-02T00:55:23.687Z,24.40
2018-04-02T00:56:23.654Z,22.90
2018-04-02T00:57:23.628Z,25.80
2018-04-02T00:58:23.599Z,28.70
2018-04-02T00:59:23.556Z,31.10
2018-04-02T01:00:23.523Z,25.40
2018-04-02T01:01:23.494Z,26.00
2018-04-02T01:02:23.458Z,27.00
2018-04-02T01:03:23.426Z,28.00
2018-04-02T01:04:23.392Z,24.60
2018-04-02T01:05:23.432Z,21.00
2018-04-02T01:06:23.328Z,29.00
2018-04-02T01:07:23.296Z,27.10
2018-04-02T01:08:23.262Z,26.50
2018-04-02T01:09:23.232Z,25.30
2018-04-02T01:10:23.198Z,23.40
2018-04-02T01:11:23.165Z,23.70
2018-04-02T01:12:23.132Z,22.80
2018-04-02T01:13:23.099Z,22.20
2018-04-02T01:14:23.068Z,27.80
2018-04-02T01:15:23.035Z,29.00
2018-04-02T01:16:23.001Z,23.80
2018-04-02T01:17:22.970Z,24.90
2018-04-02T01:18:22.946Z,25.80
2018-04-02T01:19:22.904Z,24.60
2018-04-02T01:20:22.882Z,30.20
2018-04-02T01:21:22.838Z,28.00
2018-04-02T01:22:22.806Z,23.70
2018-04-02T01:23:22.774Z,26.50
2018-04-02T01:24:22.740Z,28.50
2018-04-02T01:25:22.708Z,26.40
2018-04-02T01:26:22.675Z,25.70
2018-04-02T01:27:22.642Z,27.40
2018-04-02T01:28:22.609Z,26.20
2018-04-02T01:29:22.580Z,32.80
2018-04-02T01:30:22.544Z,29.10
2018-04-02T01:31:22.520Z,31.00
2018-04-02T01:32:22.478Z,30.10
2018-04-02T01:33:22.451Z,28.40
2018-04-02T01:34:22.413Z,25.90
2018-04-02T01:35:22.384Z,30.90
2018-04-02T01:36:22.349Z,25.60
2018-04-02T01:37:22.315Z,27.60
2018-04-02T01:38:22.282Z,30.60
2018-04-02T01:39:22.249Z,32.10
2018-04-02T01:40:22.215Z,24.80
2018-04-02T01:41:22.183Z,25.20
2018-04-02T01:42:22.152Z,31.00
2018-04-02T01:43:22.118Z,22.90
2018-04-02T01:44:22.085Z,26.20
2018-04-02T01:45:22.052Z,24.60
2018-04-02T01:46:22.020Z,24.00
2018-04-02T01:47:21.986Z,22.80
2018-04-02T01:48:21.953Z,27.10
2018-04-02T01:49:22.171Z,27.30
2018-04-02T01:50:21.888Z,26.20
2018-04-02T01:51:21.861Z,24.80
2018-04-02T01:52:21.822Z,26.20
2018-04-02T01:53:21.789Z,23.60
2018-04-02T01:54:21.757Z,27.10
2018-04-02T01:55:22.029Z,24.20
2018-04-02T01:56:21.699Z,22.00
2018-04-02T01:57:21.659Z,26.80
2018-04-02T01:58:21.625Z,20.70
2018-04-02T01:59:21.593Z,22.40
2018-04-02T02:00:21.564Z,20.60
2018-04-02T02:01:21.527Z,22.70
2018-04-02T02:02:21.493Z,21.70
2018-04-02T02:03:21.461Z,21.30
2018-04-02T02:04:21.429Z,20.40
2018-04-02T02:05:21.395Z,20.20
2018-04-02T02:06:21.362Z,24.30
2018-04-02T02:07:21.386Z,22.00
2018-04-02T02:08:21.303Z,18.60
2018-04-02T02:09:21.264Z,22.40
2018-04-02T02:10:21.238Z,24.50
2018-04-02T02:11:21.198Z,22.20
2018-04-02T02:12:21.475Z,18.30
2018-04-02T02:13:21.132Z,19.60
2018-04-02T02:14:21.110Z,19.10
2018-04-02T02:15:21.070Z,21.90
2018-04-02T02:16:21.033Z,19.70
2018-04-02T02:17:21.001Z,21.20
2018-04-02T02:18:20.971Z,17.00
2018-04-02T02:19:20.936Z,19.30
2018-04-02T02:20:20.904Z,20.50
2018-04-02T02:21:20.869Z,19.40
2018-04-02T02:22:20.838Z,17.20
2018-04-02T02:23:20.809Z,19.70
2018-04-02T02:24:20.770Z,24.30
2018-04-02T02:25:20.740Z,21.90
2018-04-02T02:26:20.705Z,22.30
2018-04-02T02:27:20.672Z,20.90
2018-04-02T02:28:20.639Z,19.10
2018-04-02T02:29:20.606Z,21.40
2018-04-02T02:30:20.575Z,19.60
2018-04-02T02:31:20.545Z,21.60
2018-04-02T02:32:20.510Z,20.70
2018-04-02T02:33:20.491Z,23.40
2018-04-02T02:34:20.450Z,22.00
2018-04-02T02:35:20.411Z,23.00
2018-04-02T02:36:20.375Z,20.90
2018-04-02T02:37:20.352Z,20.50
2018-04-02T02:38:20.316Z,24.70
2018-04-02T02:39:20.279Z,24.40
2018-04-02T02:40:20.248Z,20.80
2018-04-02T02:41:20.219Z,19.80
2018-04-02T02:42:20.186Z,20.10
2018-04-02T02:43:20.146Z,20.20
2018-04-02T02:44:20.113Z,26.80
2018-04-02T02:45:20.080Z,21.40
2018-04-02T02:46:20.058Z,20.70
2018-04-02T02:47:20.014Z,22.60
2018-04-02T02:48:19.984Z,21.30
2018-04-02T02:49:19.948Z,23.40
2018-04-02T02:50:19.915Z,24.80
2018-04-02T02:51:19.883Z,23.20
2018-04-02T02:52:19.849Z,20.20
2018-04-02T02:53:19.818Z,24.70
2018-04-02T02:54:19.783Z,21.50
2018-04-02T02:55:19.751Z,28.50
2018-04-02T02:56:19.717Z,24.40
2018-04-02T02:57:19.683Z,19.80
2018-04-02T02:58:19.657Z,21.90
2018-04-02T02:59:19.618Z,25.20
2018-04-02T03:00:19.585Z,21.30
2018-04-02T03:01:19.551Z,23.60
2018-04-02T03:02:19.518Z,23.50
2018-04-02T03:03:19.487Z,23.70
2018-04-02T03:04:19.451Z,18.70
2018-04-02T03:05:19.421Z,26.40
2018-04-02T03:06:19.387Z,24.20
2018-04-02T03:07:19.354Z,22.10
2018-04-02T03:08:19.320Z,24.40
2018-04-02T03:09:19.286Z,23.70
2018-04-02T03:10:19.256Z,23.10
2018-04-02T03:11:19.223Z,23.80
2018-04-02T03:12:19.186Z,28.80
2018-04-02T03:13:19.153Z,22.90
2018-04-02T03:14:19.125Z,23.10
2018-04-02T03:15:19.096Z,24.30
2018-04-02T03:16:19.054Z,27.40
2018-04-02T03:17:19.021Z,25.30
2018-04-02T03:18:18.988Z,28.50
2018-04-02T03:19:18.955Z,26.30
2018-04-02T03:20:18.920Z,20.90
2018-04-02T03:21:18.890Z,31.80
2018-04-02T03:22:18.854Z,26.70
2018-04-02T03:23:18.824Z,28.70
2018-04-02T03:24:18.790Z,26.00
2018-04-02T03:25:18.760Z,25.80
2018-04-02T03:26:18.722Z,26.10
2018-04-02T03:27:18.690Z,27.40
2018-04-02T03:28:18.655Z,30.80
2018-04-02T03:29:18.621Z,22.40
2018-04-02T03:30:18.593Z,24.40
2018-04-02T03:31:18.557Z,30.00
2018-04-02T03:32:18.521Z,26.90
2018-04-02T03:33:18.497Z,27.40
2018-04-02T03:34:18.455Z,30.20
2018-04-02T03:35:18.423Z,25.80
2018-04-02T03:36:18.388Z,29.40
2018-04-02T03:37:18.354Z,27.20
2018-04-02T03:38:18.324Z,29.30
2018-04-02T03:39:18.290Z,29.30
2018-04-02T03:40:18.254Z,28.10
2018-04-02T03:41:18.220Z,26.90
2018-04-02T03:42:18.188Z,31.80
2018-04-02T03:43:18.154Z,29.00
2018-04-02T03:44:18.121Z,24.70
2018-04-02T03:45:18.091Z,30.00
2018-04-02T03:46:18.204Z,25.80
2018-04-02T03:47:18.021Z,24.40
2018-04-02T03:48:17.987Z,29.80
2018-04-02T03:49:17.958Z,24.80
2018-04-02T03:50:17.920Z,35.00
2018-04-02T03:51:17.888Z,24.90
2018-04-02T03:52:18.654Z,24.70
2018-04-02T03:53:17.821Z,27.70
2018-04-02T03:54:17.786Z,32.70
2018-04-02T03:55:17.754Z,28.90
2018-04-02T03:56:17.720Z,31.50
2018-04-02T03:57:17.690Z,26.50
2018-04-02T03:58:17.653Z,28.90
2018-04-02T03:59:17.625Z,27.90
2018-04-02T04:00:17.588Z,29.70
2018-04-02T04:01:17.553Z,29.20
2018-04-02T04:02:17.520Z,26.80
2018-04-02T04:03:17.786Z,28.90
2018-04-02T04:04:17.452Z,27.40
2018-04-02T04:05:17.418Z,26.90
2018-04-02T04:06:17.385Z,26.50
2018-04-02T04:07:17.352Z,32.50
2018-04-02T04:08:17.320Z,29.20
2018-04-02T04:09:17.289Z,25.00
2018-04-02T04:10:17.260Z,34.80
2018-04-02T04:11:17.225Z,26.50
2018-04-02T04:12:17.187Z,27.80
2018-04-02T04:13:17.150Z,32.10
2018-04-02T04:14:17.125Z,27.80
2018-04-02T04:15:17.089Z,29.00
2018-04-02T04:16:17.050Z,29.30
2018-04-02T04:17:17.017Z,27.10
2018-04-02T04:18:16.983Z,26.10
2018-04-02T04:19:16.951Z,26.10
2018-04-02T04:20:16.918Z,32.90
2018-04-02T04:21:16.884Z,29.80
2018-04-02T04:22:16.850Z,30.50
2018-04-02T04:23:16.817Z,27.70
2018-04-02T04:24:16.784Z,29.40
2018-04-02T04:25:16.751Z,31.00
2018-04-02T04:26:16.716Z,33.10
2018-04-02T04:27:16.685Z,29.70
2018-04-02T04:28:16.652Z,32.00
2018-04-02T04:29:16.616Z,30.00
2018-04-02T04:30:16.586Z,37.50
2018-04-02T04:31:16.549Z,34.70
2018-04-02T04:32:16.517Z,32.70
2018-04-02T04:33:16.481Z,36.90
2018-04-02T04:34:16.448Z,35.50
2018-04-02T04:35:16.415Z,32.20
2018-04-02T04:36:16.381Z,35.20
2018-04-02T04:37:16.354Z,33.40
2018-04-02T04:38:16.315Z,35.30
2018-04-02T04:39:16.305Z,32.60
2018-04-02T04:40:16.263Z,39.10
2018-04-02T04:41:16.218Z,35.50
2018-04-02T04:42:16.187Z,35.00
2018-04-02T04:43:16.161Z,33.70
2018-04-02T04:44:16.114Z,37.00
2018-04-02T04:45:16.080Z,34.20
2018-04-02T04:46:16.048Z,39.10
2018-04-02T04:47:16.013Z,34.50
2018-04-02T04:48:15.980Z,41.10
2018-04-02T04:49:15.946Z,35.10
2018-04-02T04:50:15.914Z,37.60
2018-04-02T04:51:15.883Z,38.30
2018-04-02T04:52:15.846Z,34.50
2018-04-02T04:53:15.813Z,37.90
2018-04-02T04:54:15.779Z,37.10
2018-04-02T04:55:15.746Z,38.60
2018-04-02T04:56:15.713Z,36.40
2018-04-02T04:57:15.679Z,40.10
2018-04-02T04:58:15.647Z,31.40
2018-04-02T04:59:15.615Z,30.50
2018-04-02T05:00:15.579Z,34.50
2018-04-02T05:01:15.546Z,33.70
2018-04-02T05:02:15.512Z,35.00
2018-04-02T05:03:15.479Z,32.90
2018-04-02T05:04:15.445Z,33.80
2018-04-02T05:05:15.412Z,32.70
2018-04-02T05:06:15.379Z,37.50
2018-04-02T05:07:15.346Z,32.30
2018-04-02T05:08:15.814Z,41.20
2018-04-02T05:09:15.282Z,37.00
2018-04-02T05:10:15.250Z,32.10
2018-04-02T05:11:15.214Z,34.90
2018-04-02T05:12:15.179Z,28.80
2018-04-02T05:13:15.146Z,32.10
2018-04-02T05:14:15.124Z,32.10
2018-04-02T05:15:15.083Z,35.90
2018-04-02T05:16:15.052Z,31.80
2018-04-02T05:17:15.014Z,34.60
2018-04-02T05:18:14.983Z,31.40
2018-04-02T05:19:14.949Z,32.30
2018-04-02T05:20:14.915Z,30.40
2018-04-02T05:21:14.883Z,32.90
2018-04-02T05:22:14.851Z,33.50
2018-04-02T05:23:14.818Z,36.20
2018-04-02T05:24:14.786Z,32.70
2018-04-02T05:25:14.752Z,29.00
2018-04-02T05:26:14.720Z,28.20
2018-04-02T05:27:14.688Z,27.60
2018-04-02T05:28:14.655Z,30.00
2018-04-02T05:29:14.623Z,27.80
2018-04-02T05:30:14.591Z,29.30
2018-04-02T05:31:14.573Z,28.10
2018-04-02T05:32:14.533Z,27.00
2018-04-02T05:33:14.495Z,25.40
2018-04-02T05:34:14.466Z,29.70
2018-04-02T05:35:14.432Z,23.60
2018-04-02T05:36:14.399Z,26.70
2018-04-02T05:37:14.375Z,24.60
2018-04-02T05:38:14.337Z,22.90
2018-04-02T05:39:14.312Z,27.20
2018-04-02T05:40:14.274Z,26.90
2018-04-02T05:41:14.244Z,24.40
2018-04-02T05:42:14.212Z,25.70
2018-04-02T05:43:14.181Z,25.30
2018-04-02T05:44:14.154Z,27.00
2018-04-02T05:45:14.173Z,24.70
2018-04-02T05:46:14.090Z,25.50
2018-04-02T05:47:14.057Z,26.60
2018-04-02T05:48:14.028Z,28.10
2018-04-02T05:49:14.203Z,27.40
2018-04-02T05:50:13.964Z,23.60
2018-04-02T05:51:13.933Z,25.20
2018-04-02T05:52:13.902Z,27.60
2018-04-02T05:53:13.872Z,24.00
2018-04-02T05:54:13.846Z,22.50
2018-04-02T05:55:13.816Z,26.10
2018-04-02T05:56:13.780Z,26.50
2018-04-02T05:57:13.750Z,21.60
2018-04-02T05:58:13.720Z,25.90
2018-04-02T05:59:13.690Z,24.70
2018-04-02T06:00:13.680Z,23.00
2018-04-02T06:01:13.633Z,22.90
2018-04-02T06:02:13.616Z,21.50
2018-04-02T06:03:13.570Z,24.50
2018-04-02T06:04:13.541Z,26.80
2018-04-02T06:05:13.515Z,26.10
2018-04-02T06:06:13.804Z,21.20
2018-04-02T06:07:13.460Z,24.60
2018-04-02T06:08:13.446Z,21.90
2018-04-02T06:09:13.393Z,20.90
2018-04-02T06:10:13.365Z,25.90
2018-04-02T06:11:13.346Z,22.10
2018-04-02T06:12:13.306Z,26.70
2018-04-02T06:13:13.277Z,26.10
2018-04-02T06:14:13.248Z,21.50
2018-04-02T06:15:13.220Z,21.90
2018-04-02T06:16:13.192Z,24.60
2018-04-02T06:17:13.162Z,20.50
2018-04-02T06:18:13.135Z,21.10
2018-04-02T06:19:13.106Z,20.70
2018-04-02T06:20:13.084Z,21.70
2018-04-02T06:21:13.048Z,25.30
2018-04-02T06:22:13.024Z,22.70
2018-04-02T06:23:12.995Z,19.90
2018-04-02T06:24:12.964Z,23.40
2018-04-02T06:25:12.936Z,21.60
2018-04-02T06:26:12.909Z,20.80
2018-04-02T06:27:13.088Z,22.00
2018-04-02T06:28:12.853Z,21.40
2018-04-02T06:29:12.826Z,19.60
2018-04-02T06:30:12.798Z,25.50
2018-04-02T06:31:12.770Z,24.60
2018-04-02T06:32:12.743Z,20.90
2018-04-02T06:33:12.715Z,19.40
2018-04-02T06:34:12.689Z,24.70
2018-04-02T06:35:12.663Z,24.30
2018-04-02T06:36:12.633Z,22.90
2018-04-02T06:37:12.611Z,25.60
2018-04-02T06:38:12.579Z,21.90
2018-04-02T06:39:12.552Z,23.30
2018-04-02T06:40:12.524Z,23.20
2018-04-02T06:41:12.497Z,24.30
2018-04-02T06:42:12.474Z,24.20
2018-04-02T06:43:12.445Z,21.30
2018-04-02T06:44:12.416Z,23.30
2018-04-02T06:45:12.394Z,24.00
2018-04-02T06:46:12.363Z,25.40
2018-04-02T06:47:12.337Z,23.30
2018-04-02T06:48:12.309Z,23.60
2018-04-02T06:49:12.284Z,23.70
2018-04-02T06:50:12.262Z,23.70
2018-04-02T06:51:12.231Z,28.90
2018-04-02T06:52:12.203Z,25.00
2018-04-02T06:53:12.177Z,26.30
2018-04-02T06:54:12.150Z,25.60
2018-04-02T06:55:12.125Z,26.10
2018-04-02T06:56:12.098Z,23.10
2018-04-02T06:57:12.072Z,27.80
2018-04-02T06:58:12.071Z,24.90
2018-04-02T06:59:12.023Z,22.50
2018-04-02T07:00:11.994Z,23.70
2018-04-02T07:01:11.968Z,22.00
2018-04-02T07:02:11.942Z,22.80
2018-04-02T07:03:11.921Z,23.30
2018-04-02T07:04:11.894Z,21.80
2018-04-02T07:05:11.864Z,27.50
2018-04-02T07:06:11.838Z,21.10
2018-04-02T07:07:11.813Z,23.10
2018-04-02T07:08:11.786Z,24.20
2018-04-02T07:09:11.760Z,19.30
2018-04-02T07:10:11.742Z,20.40
2018-04-02T07:11:11.715Z,22.80
2018-04-02T07:12:11.685Z,20.80
2018-04-02T07:13:11.658Z,23.40
2018-04-02T07:14:11.632Z,23.90
2018-04-02T07:15:11.615Z,27.60
2018-04-02T07:16:11.577Z,22.70
2018-04-02T07:17:11.551Z,27.90
2018-04-02T07:18:11.526Z,25.40
2018-04-02T07:19:11.501Z,25.50
2018-04-02T07:20:11.474Z,21.70
2018-04-02T07:21:11.446Z,26.00
2018-04-02T07:22:11.421Z,24.60
2018-04-02T07:23:11.394Z,24.40
2018-04-02T07:24:11.368Z,21.60
2018-04-02T07:25:11.343Z,20.00
2018-04-02T07:26:11.318Z,24.50
2018-04-02T07:27:11.290Z,21.30
2018-04-02T07:28:11.263Z,22.30
2018-04-02T07:29:11.238Z,20.80
2018-04-02T07:30:11.211Z,18.90
2018-04-02T07:31:11.189Z,23.30
2018-04-02T07:32:11.158Z,24.20
2018-04-02T07:33:11.132Z,20.70
2018-04-02T07:34:11.107Z,20.60
2018-04-02T07:35:11.080Z,20.20
2018-04-02T07:36:11.056Z,23.60
2018-04-02T07:37:11.028Z,25.20
2018-04-02T07:38:11.003Z,20.60
2018-04-02T07:39:10.976Z,23.60
2018-04-02T07:40:10.953Z,24.70
2018-04-02T07:41:10.925Z,24.90
2018-04-02T07:42:10.899Z,21.30
2018-04-02T07:43:10.873Z,23.30
2018-04-02T07:44:10.848Z,23.70
2018-04-02T07:45:10.823Z,21.70
2018-04-02T07:46:10.798Z,23.90
2018-04-02T07:47:10.773Z,20.60
2018-04-02T07:48:10.748Z,25.60
2018-04-02T07:49:10.724Z,21.40
2018-04-02T07:50:10.700Z,23.30
2018-04-02T07:51:10.680Z,25.60
2018-04-02T07:52:10.656Z,26.40
2018-04-02T07:53:10.632Z,22.50
2018-04-02T07:54:10.602Z,24.60
2018-04-02T07:55:10.578Z,24.50
2018-04-02T07:56:10.553Z,30.80
2018-04-02T07:57:11.415Z,23.50
2018-04-02T07:58:10.506Z,24.00
2018-04-02T07:59:10.482Z,24.70
2018-04-02T08:00:10.460Z,24.10
2018-04-02T08:01:10.435Z,27.70
2018-04-02T08:02:10.411Z,26.70
2018-04-02T08:03:10.391Z,21.20
2018-04-02T08:04:10.370Z,25.50
2018-04-02T08:05:10.341Z,24.60
2018-04-02T08:06:10.317Z,21.30
2018-04-02T08:07:10.294Z,21.80
2018-04-02T08:08:10.272Z,19.50
2018-04-02T08:09:10.247Z,19.80
2018-04-02T08:10:10.225Z,19.60
2018-04-02T08:11:10.203Z,20.80
2018-04-02T08:12:10.250Z,18.10
2018-04-02T08:13:10.157Z,20.90
2018-04-02T08:14:10.133Z,22.60
2018-04-02T08:15:10.107Z,20.00
2018-04-02T08:16:10.084Z,22.40
2018-04-02T08:17:10.064Z,21.30
2018-04-02T08:18:10.038Z,20.10
2018-04-02T08:19:10.016Z,15.30
2018-04-02T08:20:09.994Z,18.70
2018-04-02T08:21:09.969Z,19.00
2018-04-02T08:22:09.947Z,19.60
2018-04-02T08:23:09.924Z,20.40
2018-04-02T08:24:09.905Z,18.10
2018-04-02T08:25:09.878Z,18.30
2018-04-02T08:26:09.856Z,19.40
2018-04-02T08:27:09.835Z,22.90
2018-04-02T08:28:09.810Z,19.90
2018-04-02T08:29:09.788Z,18.90
2018-04-02T08:30:09.766Z,19.10
2018-04-02T08:31:09.743Z,14.60
2018-04-02T08:32:09.720Z,15.10
2018-04-02T08:33:09.701Z,18.40
2018-04-02T08:34:09.676Z,12.90
2018-04-02T08:35:09.675Z,14.60
2018-04-02T08:36:09.636Z,18.10
2018-04-02T08:37:09.610Z,17.70
2018-04-02T08:38:09.587Z,21.10
2018-04-02T08:39:09.565Z,13.90
2018-04-02T08:40:09.541Z,13.60
2018-04-02T08:41:09.520Z,15.00
2018-04-02T08:42:09.903Z,14.50
2018-04-02T08:43:09.679Z,19.30
2018-04-02T08:44:09.454Z,16.50
2018-04-02T08:45:09.432Z,13.20
2018-04-02T08:46:09.410Z,15.10
2018-04-02T08:47:09.389Z,14.50
2018-04-02T08:48:09.373Z,14.40
2018-04-02T08:49:09.345Z,14.20
2018-04-02T08:50:09.325Z,12.20
2018-04-02T08:51:09.305Z,14.20
2018-04-02T08:52:09.281Z,16.60
2018-04-02T08:53:09.264Z,17.50
2018-04-02T08:54:09.241Z,12.10
2018-04-02T08:55:09.219Z,11.90
2018-04-02T08:56:09.201Z,15.40
2018-04-02T08:57:09.176Z,11.60
2018-04-02T08:58:09.160Z,13.30
2018-04-02T08:59:09.138Z,13.30
2018-04-02T09:00:09.113Z,10.90
2018-04-02T09:01:09.096Z,10.90
2018-04-02T09:02:09.077Z,12.00
2018-04-02T09:03:09.052Z,12.50
2018-04-02T09:04:09.028Z,12.60
2018-04-02T09:05:09.007Z,16.30
2018-04-02T09:06:08.987Z,11.80
2018-04-02T09:07:08.973Z,10.30
2018-04-02T09:08:08.943Z,15.30
2018-04-02T09:09:08.922Z,11.60
2018-04-02T09:10:08.900Z,13.70
2018-04-02T09:11:08.878Z,14.60
2018-04-02T09:12:08.860Z,12.30
2018-04-02T09:13:08.835Z,12.00
2018-04-02T09:14:08.814Z,10.60
2018-04-02T09:15:08.797Z,11.50
2018-04-02T09:16:08.769Z,11.40
2018-04-02T09:17:08.749Z,13.50
2018-04-02T09:18:08.727Z,13.70
2018-04-02T09:19:08.709Z,13.20
2018-04-02T09:20:08.683Z,12.70
2018-04-02T09:21:08.664Z,14.70
2018-04-02T09:22:08.645Z,11.90
2018-04-02T09:23:08.620Z,14.00
2018-04-02T09:24:08.597Z,14.00
2018-04-02T09:25:08.576Z,10.50
2018-04-02T09:26:08.555Z,14.60
2018-04-02T09:27:08.534Z,14.30
2018-04-02T09:28:08.512Z,12.00
2018-04-02T09:29:08.491Z,12.60
2018-04-02T09:30:08.470Z,13.50
2018-04-02T09:31:08.450Z,10.70
2018-04-02T09:32:08.428Z,13.90
2018-04-02T09:33:08.408Z,12.00
2018-04-02T09:34:08.387Z,11.10
2018-04-02T09:35:08.367Z,13.70
2018-04-02T09:36:08.346Z,12.20
2018-04-02T09:37:08.326Z,14.40
2018-04-02T09:38:08.305Z,12.60
2018-04-02T09:39:08.286Z,12.20
2018-04-02T09:40:08.264Z,13.70
2018-04-02T09:41:08.244Z,11.00
2018-04-02T09:42:08.225Z,10.60
2018-04-02T09:43:08.204Z,14.00
2018-04-02T09:44:08.184Z,11.90
2018-04-02T09:45:08.164Z,10.50
2018-04-02T09:46:08.145Z,11.20
2018-04-02T09:47:08.125Z,8.70
2018-04-02T09:48:08.105Z,9.60
2018-04-02T09:49:08.086Z,9.60
2018-04-02T09:50:08.067Z,12.70
2018-04-02T09:51:08.049Z,15.00
2018-04-02T09:52:08.027Z,10.70
2018-04-02T09:53:08.015Z,15.60
2018-04-02T09:54:08.028Z,9.60
2018-04-02T09:55:07.970Z,12.60
2018-04-02T09:56:07.950Z,12.30
2018-04-02T09:57:07.930Z,8.20
2018-04-02T09:58:07.912Z,11.80
2018-04-02T09:59:07.897Z,12.60
2018-04-02T10:00:07.878Z,10.10
2018-04-02T10:01:07.861Z,11.20
2018-04-02T10:02:07.839Z,11.70
2018-04-02T10:03:07.815Z,10.20
2018-04-02T10:04:07.795Z,9.70
2018-04-02T10:05:07.804Z,12.20
2018-04-02T10:06:07.759Z,11.80
2018-04-02T10:07:07.744Z,10.60
2018-04-02T10:08:07.719Z,10.50
2018-04-02T10:09:07.707Z,10.70
2018-04-02T10:10:07.762Z,9.30
2018-04-02T10:11:07.662Z,9.40
2018-04-02T10:12:07.646Z,7.70
2018-04-02T10:13:07.629Z,8.80
2018-04-02T10:14:07.610Z,7.10
2018-04-02T10:15:07.587Z,10.30
2018-04-02T10:16:07.565Z,10.50
2018-04-02T10:17:07.547Z,6.60
2018-04-02T10:18:07.529Z,8.60
2018-04-02T10:19:07.509Z,9.80
2018-04-02T10:20:07.498Z,8.60
2018-04-02T10:21:07.470Z,7.00
2018-04-02T10:22:07.452Z,9.00
2018-04-02T10:23:07.432Z,7.60
2018-04-02T10:24:07.412Z,9.90
2018-04-02T10:25:07.394Z,14.40
2018-04-02T10:26:07.376Z,10.50
2018-04-02T10:27:07.359Z,10.30
2018-04-02T10:28:07.357Z,10.10
2018-04-02T10:29:08.169Z,9.30
2018-04-02T10:30:07.300Z,11.00
2018-04-02T10:31:07.280Z,10.10
2018-04-02T10:32:07.293Z,9.60
2018-04-02T10:33:07.242Z,9.80
2018-04-02T10:34:07.222Z,11.80
2018-04-02T10:35:07.204Z,9.30
2018-04-02T10:36:07.182Z,9.70
2018-04-02T10:37:07.165Z,8.70
2018-04-02T10:38:07.142Z,9.30
2018-04-02T10:39:07.124Z,11.70
2018-04-02T10:40:07.104Z,10.10
2018-04-02T10:41:07.085Z,10.10
2018-04-02T10:42:07.066Z,8.60
2018-04-02T10:43:07.053Z,10.70
2018-04-02T10:44:07.031Z,11.60
2018-04-02T10:45:07.008Z,12.30
2018-04-02T10:46:06.991Z,10.90
2018-04-02T10:47:06.972Z,11.20
2018-04-02T10:48:06.949Z,9.40
2018-04-02T10:49:06.934Z,11.50
2018-04-02T10:50:06.911Z,9.10
2018-04-02T10:51:06.892Z,10.70
2018-04-02T10:52:06.873Z,14.40
2018-04-02T10:53:06.853Z,14.00
2018-04-02T10:54:06.835Z,11.20
2018-04-02T10:55:06.820Z,16.30
2018-04-02T10:56:06.796Z,13.30
2018-04-02T10:57:06.778Z,12.00
2018-04-02T10:58:06.758Z,13.70
2018-04-02T10:59:06.741Z,11.20
2018-04-02T11:00:06.721Z,14.00
2018-04-02T11:01:06.704Z,9.60
2018-04-02T11:02:06.683Z,9.80
2018-04-02T11:03:06.665Z,13.10
2018-04-02T11:04:06.650Z,12.00
2018-04-02T11:05:06.630Z,13.40
2018-04-02T11:06:06.610Z,11.10
2018-04-02T11:07:06.593Z,12.10
2018-04-02T11:08:06.575Z,13.70
2018-04-02T11:09:06.556Z,10.70
2018-04-02T11:10:06.538Z,12.30
2018-04-02T11:11:06.520Z,12.20
2018-04-02T11:12:06.502Z,12.20
2018-04-02T11:13:06.491Z,13.10
2018-04-02T11:14:06.466Z,11.70
2018-04-02T11:15:06.448Z,9.80
2018-04-02T11:16:06.437Z,10.20
2018-04-02T11:17:06.418Z,12.30
2018-04-02T11:18:06.394Z,12.90
2018-04-02T11:19:06.381Z,10.60
2018-04-02T11:20:06.360Z,12.00
2018-04-02T11:21:06.341Z,10.50
2018-04-02T11:22:06.328Z,10.60
2018-04-02T11:23:06.303Z,11.30
2018-04-02T11:24:06.284Z,10.70
2018-04-02T11:25:06.267Z,11.70
2018-04-02T11:26:06.249Z,10.40
2018-04-02T11:27:06.229Z,10.90
2018-04-02T11:28:06.210Z,13.60
2018-04-02T11:29:06.190Z,10.70
2018-04-02T11:30:06.174Z,11.30
2018-04-02T11:31:06.151Z,10.90
2018-04-02T11:32:06.132Z,10.40
2018-04-02T11:33:06.112Z,11.30
2018-04-02T11:34:06.094Z,9.50
2018-04-02T11:35:06.380Z,9.70
2018-04-02T11:36:06.055Z,9.50
2018-04-02T11:37:06.039Z,10.80
2018-04-02T11:38:06.017Z,9.70
2018-04-02T11:39:05.996Z,10.40
2018-04-02T11:40:05.979Z,11.00
2018-04-02T11:41:06.108Z,9.60
2018-04-02T11:42:05.939Z,11.40
2018-04-02T11:43:05.924Z,13.10
2018-04-02T11:44:05.903Z,10.70
2018-04-02T11:45:05.888Z,11.50
2018-04-02T11:46:05.864Z,11.90
2018-04-02T11:47:05.845Z,13.00
2018-04-02T11:48:05.831Z,12.90
2018-04-02T11:49:05.810Z,12.50
2018-04-02T11:50:05.791Z,11.10
2018-04-02T11:51:05.776Z,10.60
2018-04-02T11:52:05.753Z,10.40
2018-04-02T11:53:05.736Z,10.50
2018-04-02T11:54:05.722Z,11.30
2018-04-02T11:55:05.701Z,10.40
2018-04-02T11:56:05.687Z,10.60
2018-04-02T11:57:05.666Z,10.10
2018-04-02T11:58:05.648Z,10.90
2018-04-02T11:59:05.631Z,11.50
2018-04-02T12:00:05.616Z,12.40
2018-04-02T12:01:05.595Z,11.00
2018-04-02T12:02:05.579Z,10.70
2018-04-02T12:03:05.568Z,10.30
2018-04-02T12:04:05.546Z,12.00
2018-04-02T12:05:05.879Z,10.00
2018-04-02T12:06:05.513Z,10.70
2018-04-02T12:07:05.495Z,12.60
2018-04-02T12:08:05.479Z,9.60
2018-04-02T12:09:05.465Z,11.20
2018-04-02T12:10:05.447Z,10.20
2018-04-02T12:11:05.430Z,11.40
2018-04-02T12:12:05.416Z,10.50
2018-04-02T12:13:05.398Z,9.00
2018-04-02T12:14:05.384Z,13.10
2018-04-02T12:15:05.372Z,13.00
2018-04-02T12:16:05.351Z,10.30
2018-04-02T12:17:05.335Z,12.40
2018-04-02T12:18:05.320Z,10.00
2018-04-02T12:19:05.308Z,9.30
2018-04-02T12:20:05.293Z,10.60
2018-04-02T12:21:05.318Z,9.70
2018-04-02T12:22:05.258Z,10.20
2018-04-02T12:23:05.793Z,10.30
2018-04-02T12:24:05.227Z,9.70
2018-04-02T12:25:05.212Z,14.40
2018-04-02T12:26:05.217Z,13.00
2018-04-02T12:27:05.184Z,9.90
2018-04-02T12:28:05.167Z,10.50
2018-04-02T12:29:05.188Z,10.90
2018-04-02T12:30:05.138Z,9.30
2018-04-02T12:31:05.122Z,10.50
2018-04-02T12:32:05.112Z,12.50
2018-04-02T12:33:05.093Z,11.40
2018-04-02T12:34:05.082Z,12.90
2018-04-02T12:35:05.062Z,10.40
2018-04-02T12:36:05.047Z,11.20
2018-04-02T12:37:05.032Z,11.00
2018-04-02T12:38:05.019Z,12.70
2018-04-02T12:39:05.001Z,11.40
2018-04-02T12:40:04.985Z,14.60
2018-04-02T12:41:04.990Z,9.70
2018-04-02T12:42:04.954Z,14.60
2018-04-02T12:43:04.939Z,11.90
2018-04-02T12:44:04.923Z,9.60
2018-04-02T12:45:04.907Z,10.90
2018-04-02T12:46:04.892Z,10.60
2018-04-02T12:47:04.877Z,12.00
2018-04-02T12:48:04.860Z,12.10
2018-04-02T12:49:04.844Z,10.10
2018-04-02T12:50:04.829Z,11.10
2018-04-02T12:51:04.812Z,11.90
2018-04-02T12:52:04.798Z,11.70
2018-04-02T12:53:04.778Z,10.40
2018-04-02T12:54:04.768Z,10.20